createdAt,value
2023-02-04T00:00:29.699Z,9.00
2023-02-04T00:02:58.149Z,9.00
2023-02-04T00:05:26.590Z,9.00
2023-02-04T00:07:54.687Z,9.00
2023-02-04T00:10:22.999Z,8.90
2023-02-04T00:12:51.424Z,9.00
2023-02-04T00:15:19.661Z,9.00
2023-02-04T00:17:49.627Z,9.00
2023-02-04T00:20:19.610Z,9.00
2023-02-04T00:22:47.653Z,9.00
2023-02-04T00:25:15.620Z,9.00
2023-02-04T00:27:43.780Z,8.90
2023-02-04T00:30:12.781Z,8.90
2023-02-04T00:32:42.796Z,8.90
2023-02-04T00:35:12.795Z,8.90
2023-02-04T00:37:42.642Z,8.90
2023-02-04T00:40:11.653Z,8.80
2023-02-04T00:42:40.949Z,8.80
2023-02-04T00:45:09.707Z,8.70
2023-02-04T00:47:38.020Z,8.80
2023-02-04T00:50:06.494Z,8.80
2023-02-04T00:52:36.233Z,8.80
2023-02-04T00:55:04.207Z,8.80
2023-02-04T00:57:32.646Z,8.80
2023-02-04T01:00:00.901Z,8.80
2023-02-04T01:02:29.519Z,8.80
2023-02-04T01:04:58.656Z,8.80
2023-02-04T01:07:27.199Z,8.80
2023-02-04T01:09:57.944Z,8.80
2023-02-04T01:12:29.185Z,8.80
2023-02-04T01:14:58.346Z,8.80
2023-02-04T01:17:26.885Z,8.80
2023-02-04T01:19:55.274Z,8.70
2023-02-04T01:22:23.526Z,8.70
2023-02-04T01:24:51.512Z,8.70
2023-02-04T01:27:40.759Z,8.60
2023-02-04T01:30:09.444Z,8.60
2023-02-04T01:32:37.506Z,8.70
2023-02-04T01:35:07.618Z,8.70
2023-02-04T01:37:36.197Z,8.70
2023-02-04T01:40:05.014Z,8.70
2023-02-04T01:42:33.406Z,8.70
2023-02-04T01:45:06.235Z,8.70
2023-02-04T01:47:36.114Z,8.60
2023-02-04T01:50:06.222Z,8.60
2023-02-04T01:52:37.092Z,8.60
2023-02-04T01:55:06.519Z,8.70
2023-02-04T01:57:34.964Z,8.60
2023-02-04T02:00:04.954Z,8.60
2023-02-04T02:02:44.330Z,8.50
2023-02-04T02:05:14.072Z,8.60
2023-02-04T02:07:42.460Z,8.60
2023-02-04T02:10:12.740Z,8.50
2023-02-04T02:12:41.083Z,8.50
2023-02-04T02:15:12.329Z,8.50
2023-02-04T02:17:40.699Z,8.50
2023-02-04T02:20:09.732Z,8.50
2023-02-04T02:22:42.017Z,8.50
2023-02-04T02:25:13.389Z,8.50
2023-02-04T02:27:42.039Z,8.50
2023-02-04T02:30:11.734Z,8.40
2023-02-04T02:32:40.432Z,8.40
2023-02-04T02:35:09.502Z,8.30
2023-02-04T02:37:38.367Z,8.30
2023-02-04T02:40:08.069Z,8.30
2023-02-04T02:42:38.406Z,8.30
2023-02-04T02:45:09.826Z,8.40
2023-02-04T02:47:39.044Z,8.40
2023-02-04T02:50:07.750Z,8.30
2023-02-04T02:52:36.488Z,8.30
2023-02-04T02:55:05.038Z,8.30
2023-02-04T02:57:34.324Z,8.40
2023-02-04T03:00:04.288Z,8.40
2023-02-04T03:02:32.684Z,8.40
2023-02-04T03:05:02.276Z,8.40
2023-02-04T03:07:33.056Z,8.40
2023-02-04T03:10:01.451Z,8.40
2023-02-04T03:12:30.018Z,8.50
2023-02-04T03:14:58.250Z,8.50
2023-02-04T03:17:27.681Z,8.50
2023-02-04T03:19:55.484Z,8.50
2023-02-04T03:22:23.956Z,8.50
2023-02-04T03:24:52.734Z,8.40
2023-02-04T03:27:21.109Z,8.40
2023-02-04T03:29:52.101Z,8.30
2023-02-04T03:32:20.522Z,8.20
2023-02-04T03:34:51.549Z,8.10
2023-02-04T03:37:19.943Z,8.00
2023-02-04T03:39:48.233Z,7.90
2023-02-04T03:42:17.726Z,7.90
2023-02-04T03:44:46.225Z,7.90
2023-02-04T03:47:14.185Z,7.90
2023-02-04T03:49:42.611Z,7.80
2023-02-04T03:52:12.174Z,7.80
2023-02-04T03:54:40.354Z,7.80
2023-02-04T03:57:08.705Z,7.80
2023-02-04T03:59:36.690Z,7.80
2023-02-04T04:02:09.226Z,7.80
2023-02-04T04:04:38.457Z,7.80
2023-02-04T04:07:07.226Z,7.80
2023-02-04T04:09:37.169Z,7.80
2023-02-04T04:12:06.572Z,7.80
2023-02-04T04:14:35.570Z,7.80
2023-02-04T04:17:04.074Z,7.90
2023-02-04T04:19:33.560Z,7.80
2023-02-04T04:22:01.788Z,7.80
2023-02-04T04:24:29.886Z,7.90
2023-02-04T04:26:59.539Z,7.80
2023-02-04T04:29:27.628Z,7.80
2023-02-04T04:31:55.878Z,7.70
2023-02-04T04:34:23.938Z,7.70
2023-02-04T04:36:51.837Z,7.70
2023-02-04T04:39:19.908Z,7.70
2023-02-04T04:41:48.214Z,7.70
2023-02-04T04:44:17.739Z,7.60
2023-02-04T04:46:45.793Z,7.60
2023-02-04T04:49:13.929Z,7.60
2023-02-04T04:51:42.113Z,7.60
2023-02-04T04:54:12.051Z,7.60
2023-02-04T04:56:40.338Z,7.60
2023-02-04T04:59:08.600Z,7.60
2023-02-04T05:01:39.412Z,7.50
2023-02-04T05:04:07.775Z,7.40
2023-02-04T05:06:38.108Z,7.40
2023-02-04T05:09:06.460Z,7.40
2023-02-04T05:11:34.560Z,7.40
2023-02-04T05:14:02.709Z,7.40
2023-02-04T05:16:31.079Z,7.40
2023-02-04T05:19:00.771Z,7.40
2023-02-04T05:21:29.454Z,7.30
2023-02-04T05:23:57.509Z,7.30
2023-02-04T05:26:30.448Z,7.20
2023-02-04T05:29:00.462Z,7.20
2023-02-04T05:31:28.975Z,7.20
2023-02-04T05:33:57.887Z,7.10
2023-02-04T05:36:27.629Z,7.10
2023-02-04T05:38:55.702Z,7.00
2023-02-04T05:41:23.783Z,7.00
2023-02-04T05:43:54.044Z,7.10
2023-02-04T05:46:22.242Z,7.10
2023-02-04T05:48:50.605Z,7.10
2023-02-04T05:51:18.996Z,7.10
2023-02-04T05:53:48.822Z,7.10
2023-02-04T05:56:16.980Z,7.10
2023-02-04T05:58:45.086Z,7.10
2023-02-04T06:01:13.153Z,7.10
2023-02-04T06:03:41.654Z,7.00
2023-02-04T06:06:10.182Z,7.10
2023-02-04T06:08:38.804Z,7.10
2023-02-04T06:11:08.732Z,7.10
2023-02-04T06:13:36.961Z,7.20
2023-02-04T06:16:05.535Z,7.30
2023-02-04T06:18:34.192Z,7.40
2023-02-04T06:21:04.783Z,7.40
2023-02-04T06:23:34.401Z,7.50
2023-02-04T06:26:02.793Z,7.50
2023-02-04T06:28:32.562Z,7.50
2023-02-04T06:31:00.836Z,7.60
2023-02-04T06:33:29.352Z,7.70
2023-02-04T06:35:58.006Z,7.80
2023-02-04T06:38:26.318Z,7.80
2023-02-04T06:40:54.564Z,7.90
2023-02-04T06:43:25.482Z,7.90
2023-02-04T06:45:55.898Z,8.00
2023-02-04T06:48:24.133Z,8.00
2023-02-04T06:50:52.186Z,8.10
2023-02-04T06:53:20.586Z,8.10
2023-02-04T06:55:48.796Z,8.10
2023-02-04T06:58:16.814Z,8.10
2023-02-04T07:00:45.438Z,8.10
2023-02-04T07:03:14.962Z,8.10
2023-02-04T07:05:43.372Z,8.10
2023-02-04T07:08:14.119Z,8.10
2023-02-04T07:10:42.046Z,8.00
2023-02-04T07:13:10.547Z,8.00
2023-02-04T07:15:38.723Z,8.00
2023-02-04T07:18:07.253Z,7.90
2023-02-04T07:20:36.723Z,7.90
2023-02-04T07:23:06.409Z,7.90
2023-02-04T07:25:34.655Z,7.90
2023-02-04T07:28:06.102Z,7.90
2023-02-04T07:30:35.958Z,7.90
2023-02-04T07:33:04.660Z,7.90
2023-02-04T07:35:32.762Z,8.00
2023-02-04T07:38:02.675Z,8.00
2023-02-04T07:40:31.114Z,8.00
2023-02-04T07:43:00.094Z,8.00
2023-02-04T07:45:29.691Z,8.10
2023-02-04T07:47:58.235Z,8.20
2023-02-04T07:50:26.766Z,8.20
2023-02-04T07:52:57.401Z,8.30
2023-02-04T07:55:27.555Z,8.50
2023-02-04T07:57:56.464Z,8.70
2023-02-04T08:00:25.013Z,8.90
2023-02-04T08:02:53.577Z,9.20
2023-02-04T08:05:21.949Z,9.60
2023-02-04T08:07:50.155Z,10.00
2023-02-04T08:10:18.608Z,10.50
2023-02-04T08:12:48.274Z,11.20
2023-02-04T08:15:16.757Z,11.90
2023-02-04T08:17:45.504Z,12.90
2023-02-04T08:20:14.203Z,14.00
2023-02-04T08:22:42.725Z,15.00
2023-02-04T08:25:11.691Z,15.90
2023-02-04T08:27:42.536Z,16.40
2023-02-04T08:30:15.843Z,16.40
2023-02-04T08:32:44.181Z,16.60
2023-02-04T08:35:12.850Z,16.90
2023-02-04T08:37:40.997Z,17.50
2023-02-04T08:40:09.298Z,18.20
2023-02-04T08:42:37.339Z,19.20
2023-02-04T08:45:06.510Z,20.30
2023-02-04T08:47:35.969Z,21.10
2023-02-04T08:50:04.248Z,21.40
2023-02-04T08:52:32.408Z,22.00
2023-02-04T08:55:00.773Z,22.10
2023-02-04T08:57:29.215Z,22.70
2023-02-04T08:59:57.375Z,23.60
2023-02-04T09:02:25.851Z,23.50
2023-02-04T09:04:55.857Z,22.90
2023-02-04T09:07:24.320Z,23.00
2023-02-04T09:09:52.454Z,23.50
2023-02-04T09:12:21.108Z,23.60
2023-02-04T09:14:49.734Z,21.80
2023-02-04T09:17:18.898Z,20.60
2023-02-04T09:19:46.754Z,19.90
2023-02-04T09:22:16.703Z,19.20
2023-02-04T09:24:45.185Z,17.80
2023-02-04T09:27:13.272Z,16.70
2023-02-04T09:29:41.582Z,15.80
2023-02-04T09:32:09.946Z,15.20
2023-02-04T09:34:38.177Z,14.90
2023-02-04T09:37:06.158Z,14.90
2023-02-04T09:39:35.667Z,14.80
2023-02-04T09:42:04.481Z,14.60
2023-02-04T09:44:32.911Z,14.20
2023-02-04T09:47:03.210Z,14.20
2023-02-04T09:49:31.185Z,14.30
2023-02-04T09:51:59.568Z,14.70
2023-02-04T09:54:28.216Z,14.80
2023-02-04T09:56:59.509Z,14.80
2023-02-04T09:59:28.768Z,14.90
2023-02-04T10:01:59.258Z,15.00
2023-02-04T10:04:27.658Z,15.40
2023-02-04T10:06:58.571Z,15.60
2023-02-04T10:09:27.302Z,15.40
2023-02-04T10:11:55.819Z,15.30
2023-02-04T10:14:25.619Z,15.30
2023-02-04T10:16:57.259Z,15.40
2023-02-04T10:19:27.925Z,15.10
2023-02-04T10:21:56.432Z,14.70
2023-02-04T10:24:26.735Z,14.40
2023-02-04T10:26:55.344Z,14.40
2023-02-04T10:29:26.064Z,14.10
2023-02-04T10:31:56.449Z,13.60
2023-02-04T10:34:25.278Z,13.10
2023-02-04T10:36:54.188Z,12.80
2023-02-04T10:39:23.592Z,12.80
2023-02-04T10:41:52.676Z,12.70
2023-02-04T10:44:27.252Z,12.60
2023-02-04T10:47:01.806Z,12.40
2023-02-04T10:49:30.405Z,12.40
2023-02-04T10:51:59.222Z,12.70
2023-02-04T10:54:30.939Z,13.00
2023-02-04T10:57:00.821Z,13.40
2023-02-04T10:59:29.262Z,13.60
2023-02-04T11:01:58.516Z,13.70
2023-02-04T11:04:29.988Z,14.10
2023-02-04T11:06:58.503Z,14.50
2023-02-04T11:09:26.654Z,14.40
2023-02-04T11:11:55.299Z,14.20
2023-02-04T11:14:25.348Z,14.50
2023-02-04T11:16:55.122Z,14.90
2023-02-04T11:19:34.623Z,15.30
2023-02-04T11:22:06.891Z,15.30
2023-02-04T11:24:36.456Z,15.40
2023-02-04T11:27:09.060Z,15.20
2023-02-04T11:29:38.745Z,14.90
2023-02-04T11:32:27.375Z,14.20
2023-02-04T11:35:07.016Z,13.70
2023-02-04T11:37:39.996Z,13.60
2023-02-04T11:40:28.466Z,13.40
2023-02-04T11:43:04.215Z,13.60
2023-02-04T11:45:34.042Z,13.90
2023-02-04T11:48:03.831Z,14.10
2023-02-04T11:50:34.076Z,14.50
2023-02-04T11:53:03.047Z,15.20
2023-02-04T11:55:32.944Z,16.00
2023-02-04T11:58:01.391Z,16.30
2023-02-04T12:00:31.466Z,16.40
2023-02-04T12:03:01.766Z,16.80
2023-02-04T12:05:40.939Z,16.40
2023-02-04T12:08:13.740Z,16.00
2023-02-04T12:10:49.146Z,15.40
2023-02-04T12:13:18.894Z,15.10
2023-02-04T12:15:55.531Z,15.00
2023-02-04T12:18:24.034Z,14.70
2023-02-04T12:20:53.798Z,15.10
2023-02-04T12:23:22.506Z,15.70
2023-02-04T12:25:52.460Z,15.80
2023-02-04T12:28:21.318Z,15.70
2023-02-04T12:30:50.018Z,16.00
2023-02-04T12:33:18.849Z,16.80
2023-02-04T12:35:47.092Z,17.50
2023-02-04T12:38:20.655Z,18.00
2023-02-04T12:40:49.585Z,18.30
2023-02-04T12:43:17.545Z,19.30
2023-02-04T12:45:50.202Z,19.50
2023-02-04T12:48:18.539Z,19.30
2023-02-04T12:50:46.578Z,18.80
2023-02-04T12:53:16.858Z,18.80
2023-02-04T12:55:45.637Z,18.70
2023-02-04T12:58:14.308Z,18.80
2023-02-04T13:00:42.406Z,18.50
2023-02-04T13:03:10.550Z,18.40
2023-02-04T13:05:38.723Z,18.40
2023-02-04T13:08:06.745Z,18.50
2023-02-04T13:10:36.682Z,18.60
2023-02-04T13:13:05.175Z,18.30
2023-02-04T13:15:33.648Z,18.00
2023-02-04T13:18:02.000Z,17.10
2023-02-04T13:20:30.457Z,16.10
2023-02-04T13:22:58.998Z,15.10
2023-02-04T13:25:27.848Z,14.40
2023-02-04T13:27:57.703Z,14.20
2023-02-04T13:30:26.047Z,14.20
2023-02-04T13:32:54.043Z,14.40
2023-02-04T13:35:22.780Z,14.90
2023-02-04T13:37:51.564Z,15.20
2023-02-04T13:40:21.574Z,15.10
2023-02-04T13:42:49.893Z,14.80
2023-02-04T13:45:19.828Z,14.80
2023-02-04T13:47:49.371Z,14.80
2023-02-04T13:50:18.359Z,14.70
2023-02-04T13:52:46.747Z,14.70
2023-02-04T13:55:15.833Z,14.90
2023-02-04T13:57:43.918Z,15.10
2023-02-04T14:00:13.172Z,15.30
2023-02-04T14:02:42.964Z,15.50
2023-02-04T14:05:11.082Z,15.60
2023-02-04T14:07:39.692Z,16.10
2023-02-04T14:10:08.766Z,16.80
2023-02-04T14:12:37.072Z,16.80
2023-02-04T14:15:05.455Z,16.60
2023-02-04T14:17:34.425Z,16.20
2023-02-04T14:20:05.980Z,16.30
2023-02-04T14:22:34.442Z,16.60
2023-02-04T14:25:02.522Z,16.80
2023-02-04T14:27:30.961Z,16.50
2023-02-04T14:29:59.826Z,16.20
2023-02-04T14:32:28.779Z,16.40
2023-02-04T14:34:57.617Z,16.50
2023-02-04T14:37:28.902Z,16.50
2023-02-04T14:39:57.273Z,16.50
2023-02-04T14:42:25.647Z,16.70
2023-02-04T14:44:54.018Z,16.70
2023-02-04T14:47:22.714Z,16.80
2023-02-04T14:49:51.487Z,17.00
2023-02-04T14:52:19.937Z,17.00
2023-02-04T14:54:49.531Z,17.10
2023-02-04T14:57:19.144Z,16.80
2023-02-04T14:59:47.410Z,16.60
2023-02-04T15:02:16.326Z,16.50
2023-02-04T15:04:45.890Z,16.10
2023-02-04T15:07:14.305Z,16.20
2023-02-04T15:09:42.617Z,16.10
2023-02-04T15:12:12.460Z,15.90
2023-02-04T15:14:40.890Z,15.70
2023-02-04T15:17:09.136Z,15.20
2023-02-04T15:19:37.435Z,14.50
2023-02-04T15:22:05.902Z,14.00
2023-02-04T15:24:33.840Z,13.60
2023-02-04T15:27:01.876Z,13.30
2023-02-04T15:29:32.219Z,13.00
2023-02-04T15:32:00.398Z,12.70
2023-02-04T15:34:29.577Z,12.30
2023-02-04T15:36:57.892Z,12.00
2023-02-04T15:39:27.641Z,11.80
2023-02-04T15:41:55.762Z,11.60
2023-02-04T15:44:24.716Z,11.40
2023-02-04T15:46:54.695Z,11.30
2023-02-04T15:49:23.323Z,11.10
2023-02-04T15:51:51.758Z,10.90
2023-02-04T15:54:20.340Z,10.60
2023-02-04T15:56:48.856Z,10.40
2023-02-04T15:59:17.134Z,10.20
2023-02-04T16:01:45.445Z,10.00
2023-02-04T16:04:15.567Z,9.80
2023-02-04T16:06:53.457Z,9.60
2023-02-04T16:09:26.736Z,9.50
2023-02-04T16:11:55.253Z,9.30
2023-02-04T16:14:23.689Z,9.20
2023-02-04T16:16:52.453Z,9.10
2023-02-04T16:19:22.388Z,9.00
2023-02-04T16:21:50.909Z,8.90
2023-02-04T16:24:19.168Z,8.90
2023-02-04T16:26:47.492Z,8.90
2023-02-04T16:29:16.556Z,8.80
2023-02-04T16:31:45.036Z,8.70
2023-02-04T16:34:13.963Z,8.50
2023-02-04T16:36:43.327Z,8.30
2023-02-04T16:39:11.642Z,8.30
2023-02-04T16:41:39.919Z,8.10
2023-02-04T16:44:08.364Z,8.00
2023-02-04T16:46:37.035Z,8.00
2023-02-04T16:49:06.365Z,7.90
2023-02-04T16:51:34.698Z,7.80
2023-02-04T16:54:05.065Z,7.80
2023-02-04T16:56:36.005Z,7.80
2023-02-04T16:59:04.263Z,7.70
2023-02-04T17:01:32.921Z,7.60
2023-02-04T17:04:03.702Z,7.50
2023-02-04T17:06:32.934Z,7.40
2023-02-04T17:09:01.280Z,7.30
2023-02-04T17:11:31.820Z,7.20
2023-02-04T17:14:01.211Z,7.10
2023-02-04T17:16:30.692Z,6.90
2023-02-04T17:19:02.026Z,6.80
2023-02-04T17:21:31.300Z,6.80
2023-02-04T17:24:04.267Z,6.60
2023-02-04T17:26:37.519Z,6.60
2023-02-04T17:29:09.170Z,6.60
2023-02-04T17:31:37.552Z,6.50
2023-02-04T17:34:05.921Z,6.60
2023-02-04T17:36:34.640Z,6.60
2023-02-04T17:39:02.980Z,6.60
2023-02-04T17:41:31.471Z,6.70
2023-02-04T17:44:00.913Z,6.80
2023-02-04T17:46:28.997Z,6.90
2023-02-04T17:48:58.768Z,7.00
2023-02-04T17:51:27.179Z,7.00
2023-02-04T17:53:55.705Z,7.00
2023-02-04T17:56:26.465Z,7.00
2023-02-04T17:58:57.062Z,7.00
2023-02-04T18:01:27.535Z,6.80
2023-02-04T18:03:55.987Z,6.70
2023-02-04T18:06:27.339Z,6.60
2023-02-04T18:09:01.988Z,6.70
2023-02-04T18:11:31.770Z,6.70
2023-02-04T18:14:02.241Z,6.70
2023-02-04T18:16:32.499Z,6.60
2023-02-04T18:19:06.793Z,6.60
2023-02-04T18:21:34.901Z,6.60
2023-02-04T18:24:06.470Z,6.50
2023-02-04T18:26:35.384Z,6.50
2023-02-04T18:29:31.469Z,6.40
2023-02-04T18:32:03.952Z,6.40
2023-02-04T18:34:37.314Z,6.30
2023-02-04T18:37:21.544Z,6.30
2023-02-04T18:39:50.080Z,6.30
2023-02-04T18:42:26.984Z,6.30
2023-02-04T18:44:57.429Z,6.30
2023-02-04T18:47:32.387Z,6.30
2023-02-04T18:50:04.215Z,6.20
2023-02-04T18:52:40.773Z,6.20
2023-02-04T18:55:22.526Z,6.20
2023-02-04T18:57:54.306Z,6.20
2023-02-04T19:00:27.805Z,6.10
2023-02-04T19:02:59.329Z,6.10
2023-02-04T19:05:29.975Z,6.10
2023-02-04T19:08:00.448Z,6.10
2023-02-04T19:10:29.548Z,6.10
2023-02-04T19:13:02.434Z,6.10
2023-02-04T19:15:35.450Z,6.10
2023-02-04T19:18:19.470Z,6.10
2023-02-04T19:20:48.795Z,6.20
2023-02-04T19:23:19.307Z,6.10
2023-02-04T19:25:49.899Z,6.00
2023-02-04T19:28:25.915Z,6.10
2023-02-04T19:30:57.303Z,6.20
2023-02-04T19:33:27.861Z,6.10
2023-02-04T19:35:56.584Z,6.10
2023-02-04T19:38:34.333Z,6.10
2023-02-04T19:41:03.575Z,6.10
2023-02-04T19:43:37.462Z,6.10
2023-02-04T19:46:18.350Z,6.10
2023-02-04T19:48:49.468Z,6.00
2023-02-04T19:51:27.946Z,5.90
2023-02-04T20:00:15.343Z,5.80
2023-02-04T20:02:48.253Z,5.70
2023-02-04T20:05:26.775Z,5.70
2023-02-04T20:08:00.903Z,5.60
2023-02-04T20:10:31.078Z,5.50
2023-02-04T20:13:01.720Z,5.40
2023-02-04T20:15:37.233Z,5.30
2023-02-04T20:18:11.773Z,5.20
2023-02-04T20:20:45.222Z,5.10
2023-02-04T20:23:18.133Z,5.10
2023-02-04T20:25:49.580Z,5.10
2023-02-04T20:28:22.965Z,5.20
2023-02-04T20:30:51.702Z,5.20
2023-02-04T20:33:31.174Z,5.30
2023-02-04T20:36:20.234Z,5.30
2023-02-04T20:39:05.541Z,5.40
2023-02-04T20:41:36.196Z,5.40
2023-02-04T20:44:14.531Z,5.50
2023-02-04T20:46:45.667Z,5.50
2023-02-04T20:49:29.675Z,5.60
2023-02-04T20:52:02.889Z,5.70
2023-02-04T20:54:32.818Z,5.70
2023-02-04T20:57:08.070Z,5.70
2023-02-04T20:59:36.729Z,5.80
2023-02-04T21:02:17.211Z,5.80
2023-02-04T21:04:48.327Z,5.80
2023-02-04T21:07:20.973Z,5.80
2023-02-04T21:09:49.899Z,5.80
2023-02-04T21:12:20.557Z,5.80
2023-02-04T21:14:49.191Z,5.80
2023-02-04T21:17:17.644Z,5.70
2023-02-04T21:19:46.395Z,5.70
2023-02-04T21:22:14.845Z,5.70
2023-02-04T21:24:44.741Z,5.70
2023-02-04T21:27:12.979Z,5.60
2023-02-04T21:29:42.387Z,5.50
2023-02-04T21:32:11.822Z,5.50
2023-02-04T21:34:47.223Z,5.30
2023-02-04T21:37:29.478Z,5.30
2023-02-04T21:40:02.810Z,5.20
2023-02-04T21:42:31.264Z,5.10
2023-02-04T21:45:01.894Z,5.00
2023-02-04T21:47:30.288Z,5.00
2023-02-04T21:49:58.703Z,5.00
2023-02-04T21:52:37.553Z,5.10
2023-02-04T22:01:50.191Z,5.30
2023-02-04T22:04:21.525Z,5.30
2023-02-04T22:06:52.346Z,5.40
2023-02-04T22:09:30.495Z,5.40
2023-02-04T22:15:12.524Z,5.40
2023-02-04T22:17:56.965Z,5.40
2023-02-04T22:20:34.240Z,5.40
2023-02-04T22:23:03.231Z,5.50
2023-02-04T22:25:36.478Z,5.50
2023-02-04T22:28:05.115Z,5.50
2023-02-04T22:30:33.636Z,5.50
2023-02-04T22:33:03.428Z,5.40
2023-02-04T22:35:37.613Z,5.30
2023-02-04T22:38:06.440Z,5.10
2023-02-04T22:40:41.536Z,4.90
2023-02-04T22:43:11.578Z,4.70
2023-02-04T22:45:53.602Z,4.50
2023-02-04T22:48:23.486Z,4.30
2023-02-04T22:50:52.575Z,4.20
2023-02-04T22:53:20.668Z,4.10
2023-02-04T22:55:55.490Z,4.10
2023-02-04T22:58:24.494Z,4.00
2023-02-04T23:00:55.493Z,3.80
2023-02-04T23:03:29.830Z,3.80
2023-02-04T23:08:43.083Z,3.90
2023-02-04T23:11:20.351Z,4.00
2023-02-04T23:13:51.274Z,4.10
2023-02-04T23:16:28.242Z,4.20
2023-02-04T23:18:57.876Z,4.30
2023-02-04T23:21:29.135Z,4.40
2023-02-04T23:23:57.327Z,4.40
2023-02-04T23:26:28.664Z,4.60
2023-02-04T23:29:11.498Z,4.70
2023-02-04T23:31:42.604Z,4.80
2023-02-04T23:34:18.925Z,4.90
2023-02-04T23:36:51.274Z,5.00
2023-02-04T23:39:21.740Z,5.10
2023-02-04T23:41:51.716Z,5.20
2023-02-04T23:44:22.646Z,5.20
2023-02-04T23:46:51.388Z,5.30
2023-02-04T23:49:21.155Z,5.40
2023-02-04T23:51:52.798Z,5.40
2023-02-04T23:54:21.348Z,5.30
2023-02-04T23:56:54.240Z,5.30
2023-02-04T23:59:22.377Z,5.30
